Donnellson, Iowa
Current Conditions -  °F | °C
As of 11:55 AM on Thursday 30 Oct 2014 (Local Time) from KFSW Reporting Station
Overcast Overcast  
Wind Chill: 12°   Ceiling: 8000
Heat Index: 12°   Visibility: 10mi
Dew Point:   Wind: 3mph
Humidity: 67%   Direction: 130°SE
Pressure: 30.07"   Gusts: NA
Location:  40.64°N, 91.56°W
Report Text: KFSW 301655Z AUTO 13003KT 10SM OVC080 12/06 A3007 RMK AO2
Loading
Personal Weather Stations






























Interactive Weather Map
Tropical Storm Tracking
New forecast layout! Learn more

10-Day Weather Forecast

Advertisements
Track Severe Weather on mobile